sensor_id;sensor_type;location;lat;lon;timestamp;pressure;altitude;pressure_sealevel;temperature;humidity
14120;BME280;7138;49.246;9.100;2022-10-22T00:00:15;98403.41;;;16.18;100.00
14120;BME280;7138;49.246;9.100;2022-10-22T00:02:42;98392.44;;;16.06;100.00
14120;BME280;7138;49.246;9.100;2022-10-22T00:05:09;98399.19;;;16.13;100.00
14120;BME280;7138;49.246;9.100;2022-10-22T00:07:37;98398.25;;;16.15;100.00
14120;BME280;7138;49.246;9.100;2022-10-22T00:10:05;98407.66;;;16.21;100.00
14120;BME280;7138;49.246;9.100;2022-10-22T00:12:31;98407.56;;;16.25;100.00
14120;BME280;7138;49.246;9.100;2022-10-22T00:14:57;98394.44;;;16.27;100.00
14120;BME280;7138;49.246;9.100;2022-10-22T00:17:23;98405.66;;;16.30;100.00
14120;BME280;7138;49.246;9.100;2022-10-22T00:19:49;98420.50;;;16.28;100.00
14120;BME280;7138;49.246;9.100;2022-10-22T00:22:15;98402.28;;;16.27;100.00
14120;BME280;7138;49.246;9.100;2022-10-22T00:24:42;98388.34;;;16.28;100.00
14120;BME280;7138;49.246;9.100;2022-10-22T00:27:10;98399.63;;;16.28;100.00
14120;BME280;7138;49.246;9.100;2022-10-22T00:29:36;98405.75;;;16.27;100.00
14120;BME280;7138;49.246;9.100;2022-10-22T00:32:04;98417.91;;;16.28;100.00
14120;BME280;7138;49.246;9.100;2022-10-22T00:34:30;98428.19;;;16.33;100.00
14120;BME280;7138;49.246;9.100;2022-10-22T00:36:56;98423.84;;;16.33;100.00
14120;BME280;7138;49.246;9.100;2022-10-22T00:39:25;98426.34;;;16.38;100.00
14120;BME280;7138;49.246;9.100;2022-10-22T00:41:55;98414.97;;;16.39;100.00
14120;BME280;7138;49.246;9.100;2022-10-22T00:45:02;98408.00;;;16.39;100.00
14120;BME280;7138;49.246;9.100;2022-10-22T00:47:32;98410.69;;;16.36;100.00
14120;BME280;7138;49.246;9.100;2022-10-22T00:50:01;98408.06;;;16.38;100.00
14120;BME280;7138;49.246;9.100;2022-10-22T00:52:28;98413.22;;;16.39;100.00
14120;BME280;7138;49.246;9.100;2022-10-22T00:54:54;98417.59;;;16.39;100.00
14120;BME280;7138;49.246;9.100;2022-10-22T00:57:22;98428.25;;;16.31;100.00
14120;BME280;7138;49.246;9.100;2022-10-22T00:59:48;98444.19;;;16.21;100.00
14120;BME280;7138;49.246;9.100;2022-10-22T01:02:15;98448.59;;;16.19;100.00
14120;BME280;7138;49.246;9.100;2022-10-22T01:04:41;98456.38;;;16.20;100.00
14120;BME280;7138;49.246;9.100;2022-10-22T01:07:16;98465.84;;;16.24;100.00
14120;BME280;7138;49.246;9.100;2022-10-22T01:09:51;98470.38;;;16.18;100.00
14120;BME280;7138;49.246;9.100;2022-10-22T01:12:29;98456.59;;;16.13;100.00
14120;BME280;7138;49.246;9.100;2022-10-22T01:15:13;98449.78;;;16.07;100.00
14120;BME280;7138;49.246;9.100;2022-10-22T01:17:48;98446.31;;;16.07;100.00
14120;BME280;7138;49.246;9.100;2022-10-22T01:20:50;98450.53;;;16.12;100.00
14120;BME280;7138;49.246;9.100;2022-10-22T01:23:43;98448.00;;;16.09;100.00
14120;BME280;7138;49.246;9.100;2022-10-22T01:26:24;98440.94;;;16.13;100.00
14120;BME280;7138;49.246;9.100;2022-10-22T01:29:08;98426.00;;;16.18;100.00
14120;BME280;7138;49.246;9.100;2022-10-22T01:31:42;98430.28;;;16.20;100.00
14120;BME280;7138;49.246;9.100;2022-10-22T01:34:13;98423.22;;;16.24;100.00
14120;BME280;7138;49.246;9.100;2022-10-22T01:36:42;98417.06;;;16.26;100.00
14120;BME280;7138;49.246;9.100;2022-10-22T01:39:09;98415.28;;;16.28;100.00
14120;BME280;7138;49.246;9.100;2022-10-22T01:41:40;98422.19;;;16.29;100.00
14120;BME280;7138;49.246;9.100;2022-10-22T01:44:24;98435.34;;;16.26;100.00
14120;BME280;7138;49.246;9.100;2022-10-22T01:46:56;98443.16;;;16.26;100.00
14120;BME280;7138;49.246;9.100;2022-10-22T01:49:33;98437.03;;;16.29;100.00
14120;BME280;7138;49.246;9.100;2022-10-22T01:52:14;98435.22;;;16.31;100.00
14120;BME280;7138;49.246;9.100;2022-10-22T01:54:57;98439.50;;;16.33;100.00
14120;BME280;7138;49.246;9.100;2022-10-22T01:57:34;98453.34;;;16.35;100.00
14120;BME280;7138;49.246;9.100;2022-10-22T02:00:07;98460.28;;;16.36;100.00
14120;BME280;7138;49.246;9.100;2022-10-22T02:02:41;98464.63;;;16.37;100.00
14120;BME280;7138;49.246;9.100;2022-10-22T02:05:17;98482.88;;;16.37;100.00
14120;BME280;7138;49.246;9.100;2022-10-22T02:07:49;98477.66;;;16.37;100.00
14120;BME280;7138;49.246;9.100;2022-10-22T02:10:18;98475.09;;;16.36;100.00
14120;BME280;7138;49.246;9.100;2022-10-22T02:12:48;98482.03;;;16.37;100.00
14120;BME280;7138;49.246;9.100;2022-10-22T02:15:18;98481.13;;;16.38;100.00
14120;BME280;7138;49.246;9.100;2022-10-22T02:17:46;98490.78;;;16.34;100.00
14120;BME280;7138;49.246;9.100;2022-10-22T02:20:17;98489.16;;;16.30;100.00
14120;BME280;7138;49.246;9.100;2022-10-22T02:22:44;98480.63;;;16.24;100.00
14120;BME280;7138;49.246;9.100;2022-10-22T02:25:11;98482.22;;;16.29;100.00
14120;BME280;7138;49.246;9.100;2022-10-22T02:27:42;98470.09;;;16.28;100.00
14120;BME280;7138;49.246;9.100;2022-10-22T02:30:13;98470.09;;;16.28;100.00
14120;BME280;7138;49.246;9.100;2022-10-22T02:32:44;98470.34;;;16.19;100.00
14120;BME280;7138;49.246;9.100;2022-10-22T02:35:20;98467.81;;;16.16;100.00
14120;BME280;7138;49.246;9.100;2022-10-22T02:37:48;98458.47;;;16.08;100.00
14120;BME280;7138;49.246;9.100;2022-10-22T02:40:15;98456.84;;;16.04;100.00
14120;BME280;7138;49.246;9.100;2022-10-22T02:42:42;98448.97;;;16.05;100.00
14120;BME280;7138;49.246;9.100;2022-10-22T02:45:10;98433.38;;;16.02;100.00
14120;BME280;7138;49.246;9.100;2022-10-22T02:47:36;98443.81;;;16.02;100.00
14120;BME280;7138;49.246;9.100;2022-10-22T02:50:05;98443.03;;;16.00;100.00
14120;BME280;7138;49.246;9.100;2022-10-22T02:52:31;98442.16;;;16.00;100.00
14120;BME280;7138;49.246;9.100;2022-10-22T02:54:57;98430.84;;;16.01;100.00
14120;BME280;7138;49.246;9.100;2022-10-22T02:57:23;98433.44;;;16.01;100.00
14120;BME280;7138;49.246;9.100;2022-10-22T02:59:49;98434.31;;;16.01;100.00
14120;BME280;7138;49.246;9.100;2022-10-22T03:02:14;98429.09;;;16.01;100.00
14120;BME280;7138;49.246;9.100;2022-10-22T03:04:41;98428.22;;;16.01;100.00
14120;BME280;7138;49.246;9.100;2022-10-22T03:07:08;98417.75;;;16.02;100.00
14120;BME280;7138;49.246;9.100;2022-10-22T03:09:34;98417.75;;;16.02;100.00
14120;BME280;7138;49.246;9.100;2022-10-22T03:12:00;98419.53;;;16.02;100.00
14120;BME280;7138;49.246;9.100;2022-10-22T03:14:25;98410.84;;;16.01;100.00
14120;BME280;7138;49.246;9.100;2022-10-22T03:16:51;98411.00;;;15.95;100.00
14120;BME280;7138;49.246;9.100;2022-10-22T03:19:17;98387.00;;;15.82;100.00
14120;BME280;7138;49.246;9.100;2022-10-22T03:21:48;98405.00;;;15.92;100.00
14120;BME280;7138;49.246;9.100;2022-10-22T03:24:20;98420.72;;;15.89;100.00
14120;BME280;7138;49.246;9.100;2022-10-22T03:26:49;98438.34;;;15.80;100.00
14120;BME280;7138;49.246;9.100;2022-10-22T03:29:17;98424.47;;;15.78;100.00
14120;BME280;7138;49.246;9.100;2022-10-22T03:31:43;98433.13;;;15.80;100.00
14120;BME280;7138;49.246;9.100;2022-10-22T03:34:09;98426.09;;;15.82;100.00
14120;BME280;7138;49.246;9.100;2022-10-22T03:36:39;98413.25;;;15.75;100.00
14120;BME280;7138;49.246;9.100;2022-10-22T03:39:06;98428.00;;;15.77;100.00
14120;BME280;7138;49.246;9.100;2022-10-22T03:41:35;98428.91;;;15.75;100.00
14120;BME280;7138;49.246;9.100;2022-10-22T03:44:02;98404.72;;;15.70;100.00
14120;BME280;7138;49.246;9.100;2022-10-22T03:46:29;98394.38;;;15.67;100.00
14120;BME280;7138;49.246;9.100;2022-10-22T03:48:55;98398.78;;;15.65;100.00
14120;BME280;7138;49.246;9.100;2022-10-22T03:51:21;98399.72;;;15.61;100.00
14120;BME280;7138;49.246;9.100;2022-10-22T03:53:47;98411.88;;;15.62;100.00
14120;BME280;7138;49.246;9.100;2022-10-22T03:56:13;98437.16;;;15.58;100.00
14120;BME280;7138;49.246;9.100;2022-10-22T03:58:40;98432.88;;;15.56;100.00
14120;BME280;7138;49.246;9.100;2022-10-22T04:01:09;98426.13;;;15.47;100.00
14120;BME280;7138;49.246;9.100;2022-10-22T04:03:35;98439.16;;;15.47;100.00
14120;BME280;7138;49.246;9.100;2022-10-22T04:06:02;98473.13;;;15.43;100.00
14120;BME280;7138;49.246;9.100;2022-10-22T04:08:28;98473.06;;;15.46;100.00
14120;BME280;7138;49.246;9.100;2022-10-22T04:10:54;98489.53;;;15.48;100.00
14120;BME280;7138;49.246;9.100;2022-10-22T04:13:20;98491.25;;;15.49;100.00
14120;BME280;7138;49.246;9.100;2022-10-22T04:15:47;98493.78;;;15.52;100.00
14120;BME280;7138;49.246;9.100;2022-10-22T04:18:13;98499.78;;;15.55;100.00
14120;BME280;7138;49.246;9.100;2022-10-22T04:20:40;98516.16;;;15.60;100.00
14120;BME280;7138;49.246;9.100;2022-10-22T04:23:06;98511.81;;;15.61;100.00
14120;BME280;7138;49.246;9.100;2022-10-22T04:25:32;98514.41;;;15.62;100.00
14120;BME280;7138;49.246;9.100;2022-10-22T04:27:58;98510.00;;;15.63;100.00
14120;BME280;7138;49.246;9.100;2022-10-22T04:30:24;98519.56;;;15.64;100.00
14120;BME280;7138;49.246;9.100;2022-10-22T04:32:51;98517.81;;;15.64;100.00
14120;BME280;7138;49.246;9.100;2022-10-22T04:35:17;98515.22;;;15.64;100.00
14120;BME280;7138;49.246;9.100;2022-10-22T04:37:43;98514.41;;;15.62;100.00
14120;BME280;7138;49.246;9.100;2022-10-22T04:40:10;98514.47;;;15.59;100.00
14120;BME280;7138;49.246;9.100;2022-10-22T04:42:36;98515.41;;;15.55;100.00
14120;BME280;7138;49.246;9.100;2022-10-22T04:45:03;98517.34;;;15.47;100.00
14120;BME280;7138;49.246;9.100;2022-10-22T04:47:29;98520.16;;;15.37;100.00
14120;BME280;7138;49.246;9.100;2022-10-22T04:49:56;98523.84;;;15.26;100.00
14120;BME280;7138;49.246;9.100;2022-10-22T04:52:22;98526.72;;;15.14;100.00
14120;BME280;7138;49.246;9.100;2022-10-22T04:54:48;98527.91;;;15.01;100.00
14120;BME280;7138;49.246;9.100;2022-10-22T04:57:14;98533.31;;;14.92;100.00
14120;BME280;7138;49.246;9.100;2022-10-22T04:59:40;98533.44;;;14.86;100.00
14120;BME280;7138;49.246;9.100;2022-10-22T05:02:05;98533.56;;;14.80;100.00
14120;BME280;7138;49.246;9.100;2022-10-22T05:04:31;98532.88;;;14.70;100.00
14120;BME280;7138;49.246;9.100;2022-10-22T05:06:59;98538.09;;;14.69;100.00
14120;BME280;7138;49.246;9.100;2022-10-22T05:09:24;98539.00;;;14.68;100.00
14120;BME280;7138;49.246;9.100;2022-10-22T05:11:52;98545.09;;;14.67;100.00
14120;BME280;7138;49.246;9.100;2022-10-22T05:14:20;98553.66;;;14.72;100.00
14120;BME280;7138;49.246;9.100;2022-10-22T05:16:47;98553.66;;;14.72;100.00
14120;BME280;7138;49.246;9.100;2022-10-22T05:19:17;98543.38;;;14.66;100.00
14120;BME280;7138;49.246;9.100;2022-10-22T05:21:43;98550.19;;;14.71;100.00
14120;BME280;7138;49.246;9.100;2022-10-22T05:24:11;98557.19;;;14.69;100.00
14120;BME280;7138;49.246;9.100;2022-10-22T05:26:37;98555.47;;;14.68;100.00
14120;BME280;7138;49.246;9.100;2022-10-22T05:29:03;98559.78;;;14.69;100.00
14120;BME280;7138;49.246;9.100;2022-10-22T05:31:28;98555.44;;;14.70;100.00
14120;BME280;7138;49.246;9.100;2022-10-22T05:33:58;98571.06;;;14.68;100.00
14120;BME280;7138;49.246;9.100;2022-10-22T05:36:24;98567.66;;;14.66;100.00
14120;BME280;7138;49.246;9.100;2022-10-22T05:38:50;98576.38;;;14.64;100.00
14120;BME280;7138;49.246;9.100;2022-10-22T05:41:21;98567.81;;;14.59;100.00
14120;BME280;7138;49.246;9.100;2022-10-22T05:43:48;98573.91;;;14.56;100.00
14120;BME280;7138;49.246;9.100;2022-10-22T05:46:17;98579.16;;;14.55;100.00
14120;BME280;7138;49.246;9.100;2022-10-22T05:48:48;98586.09;;;14.54;100.00
14120;BME280;7138;49.246;9.100;2022-10-22T05:51:14;98589.56;;;14.55;100.00
14120;BME280;7138;49.246;9.100;2022-10-22T05:53:42;98571.56;;;14.43;100.00
14120;BME280;7138;49.246;9.100;2022-10-22T05:56:11;98574.88;;;14.52;100.00
14120;BME280;7138;49.246;9.100;2022-10-22T05:58:39;98596.56;;;14.51;100.00
14120;BME280;7138;49.246;9.100;2022-10-22T06:01:09;98598.31;;;14.51;100.00
14120;BME280;7138;49.246;9.100;2022-10-22T06:03:36;98602.63;;;14.50;100.00
14120;BME280;7138;49.246;9.100;2022-10-22T06:06:06;98600.91;;;14.51;100.00
14120;BME280;7138;49.246;9.100;2022-10-22T06:08:37;98608.72;;;14.51;100.00
14120;BME280;7138;49.246;9.100;2022-10-22T06:11:03;98611.31;;;14.51;100.00
14120;BME280;7138;49.246;9.100;2022-10-22T06:13:29;98613.06;;;14.50;100.00
14120;BME280;7138;49.246;9.100;2022-10-22T06:15:59;98633.84;;;14.52;100.00
14120;BME280;7138;49.246;9.100;2022-10-22T06:18:25;98636.44;;;14.52;100.00
14120;BME280;7138;49.246;9.100;2022-10-22T06:20:50;98637.31;;;14.51;100.00
14120;BME280;7138;49.246;9.100;2022-10-22T06:23:16;98642.47;;;14.55;100.00
14120;BME280;7138;49.246;9.100;2022-10-22T06:25:42;98641.59;;;14.55;100.00
14120;BME280;7138;49.246;9.100;2022-10-22T06:28:08;98655.50;;;14.54;100.00
14120;BME280;7138;49.246;9.100;2022-10-22T06:30:36;98658.97;;;14.54;100.00
14120;BME280;7138;49.246;9.100;2022-10-22T06:33:04;98656.41;;;14.53;100.00
14120;BME280;7138;49.246;9.100;2022-10-22T06:35:30;98662.44;;;14.53;100.00
14120;BME280;7138;49.246;9.100;2022-10-22T06:37:55;98669.38;;;14.54;100.00
14120;BME280;7138;49.246;9.100;2022-10-22T06:40:21;98664.16;;;14.56;100.00
14120;BME280;7138;49.246;9.100;2022-10-22T06:42:47;98666.69;;;14.59;100.00
14120;BME280;7138;49.246;9.100;2022-10-22T06:45:14;98678.75;;;14.64;100.00
14120;BME280;7138;49.246;9.100;2022-10-22T06:47:40;98667.34;;;14.70;100.00
14120;BME280;7138;49.246;9.100;2022-10-22T06:50:08;98669.88;;;14.74;100.00
14120;BME280;7138;49.246;9.100;2022-10-22T06:52:34;98677.56;;;14.81;100.00
14120;BME280;7138;49.246;9.100;2022-10-22T06:55:00;98681.84;;;14.85;100.00
14120;BME280;7138;49.246;9.100;2022-10-22T06:57:26;98690.47;;;14.88;100.00
14120;BME280;7138;49.246;9.100;2022-10-22T06:59:52;98684.34;;;14.91;100.00
14120;BME280;7138;49.246;9.100;2022-10-22T07:02:18;98684.28;;;14.94;100.00
14120;BME280;7138;49.246;9.100;2022-10-22T07:04:43;98694.69;;;14.95;100.00
14120;BME280;7138;49.246;9.100;2022-10-22T07:07:11;98691.25;;;14.92;100.00
14120;BME280;7138;49.246;9.100;2022-10-22T07:09:37;98699.94;;;14.92;100.00
14120;BME280;7138;49.246;9.100;2022-10-22T07:12:04;98704.34;;;14.89;100.00
14120;BME280;7138;49.246;9.100;2022-10-22T07:14:30;98708.03;;;14.75;100.00
14120;BME280;7138;49.246;9.100;2022-10-22T07:16:56;98715.06;;;14.70;100.00
14120;BME280;7138;49.246;9.100;2022-10-22T07:19:22;98709.94;;;14.66;100.00
14120;BME280;7138;49.246;9.100;2022-10-22T07:21:48;98714.28;;;14.65;100.00
14120;BME280;7138;49.246;9.100;2022-10-22T07:24:15;98721.19;;;14.68;100.00
14120;BME280;7138;49.246;9.100;2022-10-22T07:26:41;98718.53;;;14.71;100.00
14120;BME280;7138;49.246;9.100;2022-10-22T07:29:07;98717.63;;;14.72;100.00
14120;BME280;7138;49.246;9.100;2022-10-22T07:31:34;98717.59;;;14.75;100.00
14120;BME280;7138;49.246;9.100;2022-10-22T07:34:00;98717.47;;;14.81;100.00
14120;BME280;7138;49.246;9.100;2022-10-22T07:36:26;98722.63;;;14.84;100.00
14120;BME280;7138;49.246;9.100;2022-10-22T07:38:55;98732.13;;;14.87;100.00
14120;BME280;7138;49.246;9.100;2022-10-22T07:41:23;98739.94;;;14.88;100.00
14120;BME280;7138;49.246;9.100;2022-10-22T07:43:50;98744.19;;;14.92;100.00
14120;BME280;7138;49.246;9.100;2022-10-22T07:46:16;98745.94;;;14.92;100.00
14120;BME280;7138;49.246;9.100;2022-10-22T07:48:42;98755.38;;;14.97;100.00
14120;BME280;7138;49.246;9.100;2022-10-22T07:51:08;98755.38;;;14.97;100.00
14120;BME280;7138;49.246;9.100;2022-10-22T07:53:34;98760.44;;;15.05;100.00
14120;BME280;7138;49.246;9.100;2022-10-22T07:56:00;98765.66;;;15.06;100.00
14120;BME280;7138;49.246;9.100;2022-10-22T07:58:27;98770.69;;;15.14;100.00
14120;BME280;7138;49.246;9.100;2022-10-22T08:00:55;98770.59;;;15.20;100.00
14120;BME280;7138;49.246;9.100;2022-10-22T08:03:21;98772.19;;;15.28;100.00
14120;BME280;7138;49.246;9.100;2022-10-22T08:05:47;98770.25;;;15.38;100.00
14120;BME280;7138;49.246;9.100;2022-10-22T08:08:15;98770.03;;;15.53;100.00
14120;BME280;7138;49.246;9.100;2022-10-22T08:10:42;98762.78;;;15.67;100.00
14120;BME280;7138;49.246;9.100;2022-10-22T08:13:08;98767.69;;;15.82;100.00
14120;BME280;7138;49.246;9.100;2022-10-22T08:15:36;98767.38;;;15.96;100.00
14120;BME280;7138;49.246;9.100;2022-10-22T08:18:02;98764.44;;;16.13;100.00
14120;BME280;7138;49.246;9.100;2022-10-22T08:20:28;98762.19;;;16.34;100.00
14120;BME280;7138;49.246;9.100;2022-10-22T08:22:54;98754.72;;;16.58;100.00
14120;BME280;7138;49.246;9.100;2022-10-22T08:25:20;98757.66;;;16.81;100.00
14120;BME280;7138;49.246;9.100;2022-10-22T08:27:46;98757.19;;;16.99;100.00
14120;BME280;7138;49.246;9.100;2022-10-22T08:30:13;98749.69;;;17.19;100.00
14120;BME280;7138;49.246;9.100;2022-10-22T08:32:41;98753.53;;;17.38;100.00
14120;BME280;7138;49.246;9.100;2022-10-22T08:35:07;98751.38;;;17.53;100.00
14120;BME280;7138;49.246;9.100;2022-10-22T08:37:33;98753.53;;;17.69;100.00
14120;BME280;7138;49.246;9.100;2022-10-22T08:39:59;98754.88;;;17.84;100.00
14120;BME280;7138;49.246;9.100;2022-10-22T08:43:12;98757.84;;;18.01;100.00
14120;BME280;7138;49.246;9.100;2022-10-22T08:45:50;98749.69;;;18.12;100.00
14120;BME280;7138;49.246;9.100;2022-10-22T08:48:38;98760.44;;;18.30;100.00
14120;BME280;7138;49.246;9.100;2022-10-22T08:51:14;98761.88;;;18.40;100.00
14120;BME280;7138;49.246;9.100;2022-10-22T08:53:52;98765.88;;;18.53;100.00
14120;BME280;7138;49.246;9.100;2022-10-22T08:56:23;98773.38;;;18.64;100.00
14120;BME280;7138;49.246;9.100;2022-10-22T08:58:59;98757.38;;;18.73;100.00
14120;BME280;7138;49.246;9.100;2022-10-22T09:01:35;98765.66;;;18.87;100.00
14120;BME280;7138;49.246;9.100;2022-10-22T09:04:11;98768.81;;;18.97;100.00
14120;BME280;7138;49.246;9.100;2022-10-22T09:06:41;98770.38;;;19.02;100.00
14120;BME280;7138;49.246;9.100;2022-10-22T09:09:14;98769.84;;;18.93;97.59
14120;BME280;7138;49.246;9.100;2022-10-22T09:11:44;98766.19;;;18.97;100.00
14120;BME280;7138;49.246;9.100;2022-10-22T09:14:16;98778.19;;;19.04;99.43
14120;BME280;7138;49.246;9.100;2022-10-22T09:17:09;98784.13;;;19.09;97.89
14120;BME280;7138;49.246;9.100;2022-10-22T09:19:51;98784.75;;;19.17;98.97
14120;BME280;7138;49.246;9.100;2022-10-22T09:22:32;98784.44;;;19.26;100.00
14120;BME280;7138;49.246;9.100;2022-10-22T09:25:15;98792.88;;;19.34;99.20
14120;BME280;7138;49.246;9.100;2022-10-22T09:27:42;98796.25;;;19.39;97.24
14120;BME280;7138;49.246;9.100;2022-10-22T09:30:15;98794.97;;;19.51;98.61
14120;BME280;7138;49.246;9.100;2022-10-22T09:32:41;98809.31;;;19.66;100.00
14120;BME280;7138;49.246;9.100;2022-10-22T09:35:11;98808.06;;;19.76;96.60
14120;BME280;7138;49.246;9.100;2022-10-22T09:37:48;98805.78;;;19.90;96.50
14120;BME280;7138;49.246;9.100;2022-10-22T09:40:15;98803.72;;;19.98;97.14
14120;BME280;7138;49.246;9.100;2022-10-22T09:42:42;98809.69;;;20.03;94.87
14120;BME280;7138;49.246;9.100;2022-10-22T09:45:19;98814.66;;;20.10;95.83
14120;BME280;7138;49.246;9.100;2022-10-22T09:47:46;98823.03;;;20.20;95.39
14120;BME280;7138;49.246;9.100;2022-10-22T09:50:26;98821.97;;;20.26;94.87
14120;BME280;7138;49.246;9.100;2022-10-22T09:53:00;98825.41;;;20.28;95.42
14120;BME280;7138;49.246;9.100;2022-10-22T09:55:29;98825.97;;;20.36;94.22
14120;BME280;7138;49.246;9.100;2022-10-22T09:57:57;98825.56;;;20.46;95.91
14120;BME280;7138;49.246;9.100;2022-10-22T10:00:23;98832.19;;;20.56;95.16
14120;BME280;7138;49.246;9.100;2022-10-22T10:02:54;98837.38;;;20.58;93.93
14120;BME280;7138;49.246;9.100;2022-10-22T10:05:27;98835.59;;;20.58;92.44
14120;BME280;7138;49.246;9.100;2022-10-22T10:07:53;98849.91;;;20.51;92.48
14120;BME280;7138;49.246;9.100;2022-10-22T10:10:32;98835.59;;;20.58;91.40
14120;BME280;7138;49.246;9.100;2022-10-22T10:13:15;98848.72;;;20.58;90.36
14120;BME280;7138;49.246;9.100;2022-10-22T10:15:49;98845.47;;;20.52;90.27
14120;BME280;7138;49.246;9.100;2022-10-22T10:18:28;98837.03;;;20.44;91.11
14120;BME280;7138;49.246;9.100;2022-10-22T10:21:08;98837.84;;;20.46;92.99
14120;BME280;7138;49.246;9.100;2022-10-22T10:23:53;98851.19;;;20.40;90.93
14120;BME280;7138;49.246;9.100;2022-10-22T10:26:29;98844.25;;;20.39;90.76
14120;BME280;7138;49.246;9.100;2022-10-22T10:29:12;98841.94;;;20.53;94.20
14120;BME280;7138;49.246;9.100;2022-10-22T10:31:59;98841.34;;;20.68;94.34
14120;BME280;7138;49.246;9.100;2022-10-22T10:34:41;98838.31;;;20.79;91.83
14120;BME280;7138;49.246;9.100;2022-10-22T10:37:18;98834.88;;;20.77;93.02
14120;BME280;7138;49.246;9.100;2022-10-22T10:40:13;98840.75;;;20.83;91.81
14120;BME280;7138;49.246;9.100;2022-10-22T10:42:49;98842.72;;;20.78;90.88
14120;BME280;7138;49.246;9.100;2022-10-22T10:45:23;98845.59;;;20.94;92.53
14120;BME280;7138;49.246;9.100;2022-10-22T10:48:15;98834.09;;;20.96;92.65
14120;BME280;7138;49.246;9.100;2022-10-22T10:50:58;98837.78;;;21.14;90.62
14120;BME280;7138;49.246;9.100;2022-10-22T10:53:46;98838.06;;;21.28;89.57
14120;BME280;7138;49.246;9.100;2022-10-22T10:56:36;98846.94;;;21.25;88.52
14120;BME280;7138;49.246;9.100;2022-10-22T10:59:17;98845.66;;;21.36;91.48
14120;BME280;7138;49.246;9.100;2022-10-22T11:02:08;98835.22;;;21.54;89.52
14120;BME280;7138;49.246;9.100;2022-10-22T11:05:02;98842.56;;;21.66;88.57
14120;BME280;7138;49.246;9.100;2022-10-22T11:07:39;98843.22;;;21.71;87.77
14120;BME280;7138;49.246;9.100;2022-10-22T11:10:21;98850.88;;;21.57;84.75
14120;BME280;7138;49.246;9.100;2022-10-22T11:12:55;98852.00;;;21.52;86.55
14120;BME280;7138;49.246;9.100;2022-10-22T11:15:29;98856.19;;;21.56;86.42
14120;BME280;7138;49.246;9.100;2022-10-22T11:18:07;98848.03;;;21.42;86.22
14120;BME280;7138;49.246;9.100;2022-10-22T11:20:56;98853.34;;;21.40;87.84
14120;BME280;7138;49.246;9.100;2022-10-22T11:23:32;98843.88;;;21.36;86.71
14120;BME280;7138;49.246;9.100;2022-10-22T11:26:04;98849.28;;;21.33;85.58
14120;BME280;7138;49.246;9.100;2022-10-22T11:28:41;98839.16;;;21.22;85.90
14120;BME280;7138;49.246;9.100;2022-10-22T11:31:16;98834.25;;;21.35;88.47
14120;BME280;7138;49.246;9.100;2022-10-22T11:33:51;98841.13;;;21.39;85.13
14120;BME280;7138;49.246;9.100;2022-10-22T11:36:22;98849.78;;;21.41;85.00
14120;BME280;7138;49.246;9.100;2022-10-22T11:38:51;98838.16;;;21.47;86.82
14120;BME280;7138;49.246;9.100;2022-10-22T11:41:23;98837.72;;;21.57;86.23
14120;BME280;7138;49.246;9.100;2022-10-22T11:44:00;98843.88;;;21.56;86.37
14120;BME280;7138;49.246;9.100;2022-10-22T11:46:42;98844.75;;;21.57;85.18
14120;BME280;7138;49.246;9.100;2022-10-22T11:49:21;98836.97;;;21.54;86.26
14120;BME280;7138;49.246;9.100;2022-10-22T11:51:48;98825.66;;;21.52;85.52
14120;BME280;7138;49.246;9.100;2022-10-22T11:54:40;98832.09;;;21.45;84.49
14120;BME280;7138;49.246;9.100;2022-10-22T11:57:25;98810.72;;;21.32;82.17
14120;BME280;7138;49.246;9.100;2022-10-22T11:59:56;98823.88;;;21.52;84.97
14120;BME280;7138;49.246;9.100;2022-10-22T12:02:39;98820.72;;;21.64;84.95
14120;BME280;7138;49.246;9.100;2022-10-22T12:05:42;98814.09;;;21.76;84.17
14120;BME280;7138;49.246;9.100;2022-10-22T12:08:22;98819.41;;;21.74;82.77
14120;BME280;7138;49.246;9.100;2022-10-22T12:11:05;98819.00;;;21.84;83.72
14120;BME280;7138;49.246;9.100;2022-10-22T12:14:01;98810.97;;;21.87;84.21
14120;BME280;7138;49.246;9.100;2022-10-22T12:16:33;98809.38;;;21.83;85.00
14120;BME280;7138;49.246;9.100;2022-10-22T12:19:05;98816.06;;;21.91;84.92
14120;BME280;7138;49.246;9.100;2022-10-22T12:21:32;98816.38;;;22.04;85.19
14120;BME280;7138;49.246;9.100;2022-10-22T12:23:59;98809.88;;;22.11;84.46
14120;BME280;7138;49.246;9.100;2022-10-22T12:26:30;98814.47;;;22.26;85.04
14120;BME280;7138;49.246;9.100;2022-10-22T12:28:59;98807.63;;;22.22;83.65
14120;BME280;7138;49.246;9.100;2022-10-22T12:31:25;98808.75;;;22.16;82.17
14120;BME280;7138;49.246;9.100;2022-10-22T12:33:58;98806.19;;;22.15;82.05
14120;BME280;7138;49.246;9.100;2022-10-22T12:36:26;98806.34;;;22.12;83.38
14120;BME280;7138;49.246;9.100;2022-10-22T12:38:52;98800.84;;;22.16;83.05
14120;BME280;7138;49.246;9.100;2022-10-22T12:41:20;98798.50;;;22.10;81.45
14120;BME280;7138;49.246;9.100;2022-10-22T12:43:46;98801.94;;;22.12;81.96
14120;BME280;7138;49.246;9.100;2022-10-22T12:46:14;98800.66;;;22.21;82.90
14120;BME280;7138;49.246;9.100;2022-10-22T12:48:43;98798.16;;;22.18;82.96
14120;BME280;7138;49.246;9.100;2022-10-22T12:51:18;98789.25;;;22.20;83.47
14120;BME280;7138;49.246;9.100;2022-10-22T12:53:48;98786.69;;;22.38;84.67
14120;BME280;7138;49.246;9.100;2022-10-22T12:56:21;98784.75;;;22.41;82.97
14120;BME280;7138;49.246;9.100;2022-10-22T12:58:54;98788.38;;;22.57;82.86
14120;BME280;7138;49.246;9.100;2022-10-22T13:01:26;98787.06;;;22.67;81.74
14120;BME280;7138;49.246;9.100;2022-10-22T13:04:12;98783.34;;;22.71;80.55
14120;BME280;7138;49.246;9.100;2022-10-22T13:06:44;98772.00;;;22.69;81.27
14120;BME280;7138;49.246;9.100;2022-10-22T13:09:17;98787.00;;;22.86;80.84
14120;BME280;7138;49.246;9.100;2022-10-22T13:11:50;98786.38;;;22.81;78.95
14120;BME280;7138;49.246;9.100;2022-10-22T13:14:27;98785.66;;;22.77;79.89
14120;BME280;7138;49.246;9.100;2022-10-22T13:17:13;98795.88;;;22.85;78.74
14120;BME280;7138;49.246;9.100;2022-10-22T13:19:48;98800.09;;;22.70;78.87
14120;BME280;7138;49.246;9.100;2022-10-22T13:22:28;98798.78;;;22.60;77.89